Time;durP1;ratioP1;P1;durP2;ratioP2;P2;SDS_P1;SDS_P2;PMS_P1;PMS_P2;Temp;Humidity;BMP_temperature;BMP_pressure;BME280_temperature;BME280_humidity;BME280_pressure;Samples;Min_cycle;Max_cycle;Signal;HPM_P1;HPM_P2
2023/09/06 00:01:21;;;;;;;11.70;5.82;;;;;;;21.02;100.00;100841.22;5133648;27;20509;-73
2023/09/06 00:03:46;;;;;;;11.52;5.68;;;;;;;21.12;100.00;100847.53;5133737;27;20125;-73
2023/09/06 00:06:12;;;;;;;7.78;5.57;;;;;;;21.32;100.00;100904.13;5133396;27;20026;-73
2023/09/06 00:08:37;;;;;;;11.63;6.05;;;;;;;21.44;100.00;100893.06;5152107;27;20489;-73
2023/09/06 00:11:06;;;;;;;10.57;6.07;;;;;;;21.18;100.00;100879.06;5134128;27;20083;-74
2023/09/06 00:13:33;;;;;;;14.07;5.90;;;;;;;21.04;100.00;100834.19;5152312;27;20031;-73
2023/09/06 00:16:00;;;;;;;6.82;5.45;;;;;;;21.30;100.00;100898.22;5133847;27;20091;-74
2023/09/06 00:18:27;;;;;;;8.27;5.63;;;;;;;21.61;100.00;100970.56;5133815;27;20030;-74
2023/09/06 00:20:53;;;;;;;7.50;5.40;;;;;;;21.25;100.00;100928.69;5133409;27;20491;-74
2023/09/06 00:23:20;;;;;;;12.63;6.05;;;;;;;21.36;100.00;100936.66;5136470;27;20026;-75
2023/09/06 00:25:46;;;;;;;10.98;6.38;;;;;;;21.63;100.00;100984.25;5156576;27;20095;-75
2023/09/06 00:28:13;;;;;;;8.45;5.30;;;;;;;21.30;100.00;100922.34;5156391;27;20075;-73
2023/09/06 00:30:38;;;;;;;8.73;5.90;;;;;;;21.34;100.00;100929.00;5156359;27;20564;-76
2023/09/06 00:33:06;;;;;;;8.85;6.22;;;;;;;21.41;100.00;100948.41;5155438;27;20059;-75
2023/09/06 00:35:32;;;;;;;11.88;7.32;;;;;;;21.17;100.00;100941.22;5137409;27;20117;-75
2023/09/06 00:38:00;;;;;;;10.25;7.90;;;;;;;21.19;100.00;100963.53;5156060;27;20564;-75
2023/09/06 00:40:26;;;;;;;10.85;7.93;;;;;;;20.58;100.00;100892.81;5137622;27;20031;-75
2023/09/06 00:42:59;;;;;;;13.35;8.40;;;;;;;20.52;100.00;100883.59;5137427;27;20030;-76
2023/09/06 00:45:28;;;;;;;13.38;8.85;;;;;;;20.51;100.00;100869.03;5156065;27;20034;-74
2023/09/06 00:47:55;;;;;;;11.50;8.82;;;;;;;20.80;100.00;100843.34;5155495;27;20080;-74
2023/09/06 00:50:21;;;;;;;10.40;8.75;;;;;;;20.71;100.00;100861.03;5155900;27;20033;-73
2023/09/06 00:52:49;;;;;;;13.57;9.18;;;;;;;20.64;100.00;100827.81;5155974;27;20034;-73
2023/09/06 00:55:14;;;;;;;14.73;9.02;;;;;;;20.83;100.00;100856.91;5155661;27;20031;-73
2023/09/06 00:57:41;;;;;;;13.52;8.95;;;;;;;20.79;100.00;100828.72;5136959;27;20026;-74
2023/09/06 01:00:22;;;;;;;12.27;8.15;;;;;;;20.48;100.00;100747.75;5163124;27;20109;-73
2023/09/06 01:02:48;;;;;;;;;;;;;;;21.10;100.00;100844.19;5151564;27;20077;-73
2023/09/06 01:05:15;;;;;;;12.55;7.68;;;;;;;21.01;100.00;100845.56;5155294;27;19915;-73
2023/09/06 01:07:47;;;;;;;10.70;6.93;;;;;;;20.92;100.00;100840.88;5136339;27;20432;-73
2023/09/06 01:10:12;;;;;;;9.80;7.22;;;;;;;21.04;100.00;100814.34;5155267;27;20030;-72
2023/09/06 01:12:37;;;;;;;8.60;7.03;;;;;;;21.12;100.00;100837.19;5154968;27;20491;-73
2023/09/06 01:15:04;;;;;;;11.25;7.00;;;;;;;20.94;100.00;100789.06;5154771;27;20171;-73
2023/09/06 01:17:32;;;;;;;11.43;7.30;;;;;;;21.01;100.00;100811.94;5155193;27;20055;-73
2023/09/06 01:20:09;;;;;;;10.25;7.22;;;;;;;20.91;100.00;100792.69;5154721;27;20042;-72
2023/09/06 01:22:40;;;;;;;10.05;7.68;;;;;;;21.06;100.00;100820.25;5136356;27;20019;-72
2023/09/06 01:25:08;;;;;;;8.73;7.20;;;;;;;20.74;100.00;100769.53;5154941;27;20423;-73
2023/09/06 01:27:34;;;;;;;11.70;7.18;;;;;;;20.99;100.00;100821.50;5136214;27;20033;-71
2023/09/06 01:29:59;;;;;;;8.50;7.32;;;;;;;21.24;100.00;100878.69;5136377;27;20027;-72
2023/09/06 01:32:27;;;;;;;10.30;7.40;;;;;;;21.18;100.00;100884.22;5126439;27;20398;-72
2023/09/06 01:34:54;;;;;;;10.88;7.45;;;;;;;21.12;100.00;100876.81;5133431;27;20028;-72
2023/09/06 01:37:21;;;;;;;11.32;7.15;;;;;;;21.03;100.00;100886.84;5115316;27;20160;-70
2023/09/06 01:39:47;;;;;;;10.93;6.90;;;;;;;21.33;100.00;100942.03;5114908;27;20027;-74
2023/09/06 01:42:12;;;;;;;10.85;7.13;;;;;;;21.03;100.00;100899.78;5114812;27;20039;-72
2023/09/06 01:44:38;;;;;;;9.30;7.00;;;;;;;21.02;100.00;100908.44;5133721;27;20034;-72
2023/09/06 01:47:03;;;;;;;10.50;7.40;;;;;;;21.17;100.00;100921.38;5114931;27;20038;-73
2023/09/06 01:49:29;;;;;;;10.57;6.90;;;;;;;21.06;100.00;100930.63;5133909;27;20088;-73
2023/09/06 01:51:57;;;;;;;9.60;7.30;;;;;;;21.38;100.00;101000.38;5133619;27;20023;-73
2023/09/06 01:54:23;;;;;;;11.32;6.97;;;;;;;21.32;100.00;100964.47;5123328;27;20027;-73
2023/09/06 01:56:49;;;;;;;11.27;6.85;;;;;;;21.10;100.00;100932.97;5133133;27;20084;-72
2023/09/06 01:59:14;;;;;;;8.27;7.00;;;;;;;21.44;100.00;100973.31;5133696;27;20023;-72
2023/09/06 02:01:40;;;;;;;11.20;7.05;;;;;;;21.31;100.00;100962.00;5132868;27;20520;-72
2023/09/06 02:04:06;;;;;;;10.63;6.88;;;;;;;21.07;100.00;100921.97;5115184;27;20459;-73
2023/09/06 02:06:31;;;;;;;9.30;6.32;;;;;;;21.27;100.00;100976.81;5115470;27;20042;-72
2023/09/06 02:08:57;;;;;;;8.05;6.47;;;;;;;21.34;100.00;100992.84;5114796;27;20461;-72
2023/09/06 02:11:22;;;;;;;8.27;6.15;;;;;;;21.09;100.00;100944.25;5132687;27;20577;-72
2023/09/06 02:13:48;;;;;;;10.90;6.40;;;;;;;21.30;100.00;100997.38;5132705;27;20031;-73
2023/09/06 02:16:13;;;;;;;14.32;6.53;;;;;;;21.04;100.00;100964.34;5114529;27;20171;-72
2023/09/06 02:18:38;;;;;;;10.95;6.53;;;;;;;21.25;100.00;101019.25;5114186;27;20500;-70
2023/09/06 02:21:04;;;;;;;7.85;6.32;;;;;;;21.27;100.00;101020.81;5132651;27;20031;-73
2023/09/06 02:23:29;;;;;;;8.30;6.00;;;;;;;21.23;100.00;101027.09;5132567;27;20167;-72
2023/09/06 02:25:57;;;;;;;9.13;5.82;;;;;;;21.04;100.00;100997.13;5132325;27;20035;-72
2023/09/06 02:28:22;;;;;;;11.13;5.90;;;;;;;20.91;100.00;100999.53;5133277;27;20087;-73
2023/09/06 02:30:48;;;;;;;8.32;5.90;;;;;;;21.19;100.00;101060.97;5113821;27;20027;-70
2023/09/06 02:33:14;;;;;;;6.88;5.82;;;;;;;20.78;100.00;101016.59;5113650;27;20027;-70
2023/09/06 02:35:41;;;;;;;8.98;5.38;;;;;;;21.12;100.00;101075.16;5132547;27;20802;-72
2023/09/06 02:38:15;;;;;;;9.80;6.03;;;;;;;21.12;100.00;101101.00;5113739;27;20028;-72
2023/09/06 02:40:41;;;;;;;8.25;5.82;;;;;;;21.18;100.00;101117.06;5110817;27;20049;-73
2023/09/06 02:43:06;;;;;;;7.72;5.50;;;;;;;20.80;100.00;101068.25;5113554;27;20039;-73
2023/09/06 02:45:38;;;;;;;7.97;5.65;;;;;;;21.15;100.00;101145.69;5119797;27;20495;-73
2023/09/06 02:48:07;;;;;;;;;;;;;;;21.18;100.00;101173.97;5094100;28;20040;-73
2023/09/06 02:50:36;;;;;;;7.05;5.60;;;;;;;20.77;100.00;101145.97;5110567;28;19979;-73
2023/09/06 02:53:03;;;;;;;7.07;5.72;;;;;;;21.06;100.00;101181.53;5111559;27;20238;-73
2023/09/06 02:55:29;;;;;;;8.52;5.78;;;;;;;20.60;100.00;101170.91;5100131;28;20031;-73
2023/09/06 02:57:55;;;;;;;6.78;5.15;;;;;;;20.50;100.00;101143.84;5111736;28;20020;-73
2023/09/06 03:00:26;;;;;;;9.05;5.90;;;;;;;20.65;100.00;101193.94;5111471;28;20032;-73
2023/09/06 03:02:55;;;;;;;;;;;;;;;21.03;100.00;101242.03;5095669;27;20043;-72
2023/09/06 03:05:22;;;;;;;8.55;5.70;;;;;;;20.73;100.00;101220.25;5115534;28;20442;-72
2023/09/06 03:07:48;;;;;;;11.05;5.63;;;;;;;20.69;100.00;101229.91;5093517;28;20529;-73
2023/09/06 03:10:15;;;;;;;9.63;6.35;;;;;;;20.70;100.00;101244.50;5111660;28;20024;-72
2023/09/06 03:12:43;;;;;;;9.93;5.50;;;;;;;20.64;100.00;101208.63;5095610;27;20110;-72
2023/09/06 03:15:10;;;;;;;6.10;5.50;;;;;;;20.86;100.00;101278.19;5132052;27;20072;-71
2023/09/06 03:17:36;;;;;;;9.10;6.60;;;;;;;20.48;100.00;101228.38;5131884;27;20150;-71
2023/09/06 03:20:18;;;;;;;10.73;6.05;;;;;;;20.58;100.00;101203.75;5130985;28;20027;-71
2023/09/06 03:22:46;;;;;;;8.48;5.47;;;;;;;20.86;100.00;101283.38;5131388;28;20027;-72
2023/09/06 03:25:14;;;;;;;6.18;5.28;;;;;;;20.96;100.00;101300.09;5121281;28;20027;-74
2023/09/06 03:27:39;;;;;;;6.90;5.85;;;;;;;20.79;100.00;101279.41;5112027;28;20092;-74
2023/09/06 03:30:07;;;;;;;9.88;6.13;;;;;;;20.39;100.00;101241.75;5093258;28;20482;-75
2023/09/06 03:32:33;;;;;;;6.88;5.90;;;;;;;20.38;100.00;101236.66;5093511;28;20044;-74
2023/09/06 03:34:58;;;;;;;6.75;6.05;;;;;;;20.62;100.00;101272.47;5111645;28;20027;-72
2023/09/06 03:37:24;;;;;;;9.68;6.45;;;;;;;20.39;100.00;101228.81;5091985;28;20035;-72
2023/09/06 03:39:53;;;;;;;9.52;6.28;;;;;;;20.35;100.00;101216.13;5110780;28;20471;-72
2023/09/06 03:42:19;;;;;;;9.85;5.93;;;;;;;20.33;100.00;101180.03;5092232;28;20027;-72
2023/09/06 03:44:46;;;;;;;9.27;6.70;;;;;;;19.66;100.00;101060.22;5110472;28;20032;-72
2023/09/06 03:47:15;;;;;;;12.25;6.57;;;;;;;20.17;100.00;101126.56;5110844;28;20406;-73
2023/09/06 03:49:43;;;;;;;8.13;6.15;;;;;;;20.05;100.00;101063.44;5111456;28;20379;-74
2023/09/06 03:52:10;;;;;;;8.80;6.50;;;;;;;20.36;100.00;101098.97;5093174;28;20530;-73
2023/09/06 03:54:37;;;;;;;10.25;6.13;;;;;;;20.32;100.00;101084.53;5093207;28;20124;-72
2023/09/06 03:57:05;;;;;;;12.43;6.90;;;;;;;20.11;100.00;101057.13;5111627;28;20473;-74
2023/09/06 03:59:37;;;;;;;9.32;6.15;;;;;;;20.41;100.00;101061.66;5097180;28;20081;-74
2023/09/06 04:02:07;;;;;;;9.55;6.30;;;;;;;19.99;100.00;101001.78;5091551;28;20135;-73
2023/09/06 04:04:34;;;;;;;9.05;6.55;;;;;;;20.18;100.00;101007.72;5097230;28;20024;-74
2023/09/06 04:07:00;;;;;;;9.90;6.40;;;;;;;20.40;100.00;101007.47;5089080;28;20062;-73
2023/09/06 04:09:30;;;;;;;8.68;6.15;;;;;;;20.41;100.00;100999.63;5076754;28;20066;-74
2023/09/06 04:11:58;;;;;;;7.72;6.00;;;;;;;20.22;100.00;100990.34;5077744;28;20032;-74
2023/09/06 04:14:24;;;;;;;8.45;6.07;;;;;;;19.93;100.00;100939.31;5094826;28;20032;-73
2023/09/06 04:16:49;;;;;;;9.15;6.47;;;;;;;20.13;100.00;100962.34;5076948;28;20039;-74
2023/09/06 04:19:15;;;;;;;10.85;7.00;;;;;;;19.95;100.00;100927.97;5094013;28;20414;-73
2023/09/06 04:21:40;;;;;;;10.15;6.72;;;;;;;20.18;100.00;100876.00;5094494;28;20032;-73
2023/09/06 04:24:08;;;;;;;8.90;6.68;;;;;;;19.83;100.00;100768.56;5110277;28;20035;-73
2023/09/06 04:26:38;;;;;;;10.82;6.90;;;;;;;20.04;100.00;100792.41;5122693;28;20057;-71
2023/09/06 04:29:03;;;;;;;10.68;7.25;;;;;;;20.03;100.00;100803.63;5075916;28;20044;-72
2023/09/06 04:31:30;;;;;;;8.57;7.00;;;;;;;19.86;100.00;100737.44;5075623;28;20388;-72
2023/09/06 04:33:58;;;;;;;9.65;7.00;;;;;;;19.95;100.00;100715.47;5093526;28;20031;-72
2023/09/06 04:36:23;;;;;;;10.52;7.25;;;;;;;19.87;100.00;100692.63;5094048;28;20077;-73
2023/09/06 04:38:49;;;;;;;14.57;8.20;;;;;;;20.34;100.00;100727.00;5093781;28;20032;-74
2023/09/06 04:41:14;;;;;;;10.43;7.47;;;;;;;20.70;100.00;100762.84;5129476;27;20487;-72
2023/09/06 04:43:40;;;;;;;12.25;8.15;;;;;;;20.56;100.00;100735.22;5115960;27;20039;-73
2023/09/06 04:46:06;;;;;;;8.25;6.75;;;;;;;21.01;100.00;100824.88;5115616;27;20023;-72
2023/09/06 04:48:31;;;;;;;10.15;6.93;;;;;;;21.10;100.00;100839.84;5134967;27;20061;-73
2023/09/06 04:50:59;;;;;;;8.18;6.68;;;;;;;20.94;100.00;100848.53;5134067;27;20447;-74
2023/09/06 04:53:24;;;;;;;9.82;7.22;;;;;;;20.86;100.00;100925.72;5132219;27;20031;-73
2023/09/06 04:55:52;;;;;;;10.85;7.93;;;;;;;20.93;100.00;100955.50;5134318;27;20023;-71
2023/09/06 04:58:18;;;;;;;11.85;6.97;;;;;;;20.65;100.00;100904.47;5105204;28;20031;-74
2023/09/06 05:00:47;;;;;;;8.77;6.90;;;;;;;20.38;100.00;100849.13;5113539;28;20089;-70
2023/09/06 05:03:17;;;;;;;10.07;6.88;;;;;;;20.99;100.00;100937.03;5133634;27;20125;-71
2023/09/06 05:05:45;;;;;;;9.30;7.13;;;;;;;20.82;100.00;100906.13;5129777;27;20032;-71
2023/09/06 05:08:11;;;;;;;11.43;7.32;;;;;;;20.97;100.00;100915.59;5129772;27;20023;-72
2023/09/06 05:10:37;;;;;;;9.18;7.20;;;;;;;21.10;100.00;100906.25;5114809;27;20031;-71
2023/09/06 05:13:07;;;;;;;13.35;7.63;;;;;;;20.72;100.00;100860.09;5115859;27;20035;-71
2023/09/06 05:15:35;;;;;;;11.82;7.90;;;;;;;21.22;100.00;100911.59;5134050;27;20043;-72
2023/09/06 05:18:01;;;;;;;11.93;7.45;;;;;;;21.10;100.00;100890.75;5115641;27;20027;-71
2023/09/06 05:20:28;;;;;;;14.15;7.80;;;;;;;21.48;100.00;100898.00;5115269;27;20031;-72
2023/09/06 05:22:55;;;;;;;12.50;7.80;;;;;;;22.28;100.00;100903.50;5115240;27;20059;-69
2023/09/06 05:25:21;;;;;;;13.10;7.88;;;;;;;21.37;100.00;100886.59;5133820;27;20038;-71
2023/09/06 05:27:47;;;;;;;11.23;7.60;;;;;;;21.67;100.00;100936.56;5115291;27;20027;-71
2023/09/06 05:30:14;;;;;;;10.75;7.72;;;;;;;21.55;100.00;100919.19;5133288;27;20550;-71
2023/09/06 05:32:39;;;;;;;15.88;7.65;;;;;;;21.51;100.00;100910.75;5115342;27;20114;-71
2023/09/06 05:35:05;;;;;;;15.43;8.55;;;;;;;21.71;100.00;100947.59;5131656;27;20110;-73
2023/09/06 05:37:31;;;;;;;19.73;8.80;;;;;;;21.72;100.00;100947.50;5132386;27;20118;-71
2023/09/06 05:39:56;;;;;;;11.35;8.23;;;;;;;21.72;100.00;100898.31;5110635;27;20181;-72
2023/09/06 05:42:22;;;;;;;16.50;8.40;;;;;;;21.73;100.00;100842.19;5141982;27;20027;-73
2023/09/06 05:44:47;;;;;;;21.00;8.88;;;;;;;22.09;100.00;100882.25;5114566;27;20075;-72
2023/09/06 05:47:12;;;;;;;13.52;8.68;;;;;;;21.94;100.00;100852.09;5114678;27;20122;-72
2023/09/06 05:49:38;;;;;;;16.70;8.43;;;;;;;22.33;100.00;100906.66;5132654;27;20041;-71
2023/09/06 05:52:04;;;;;;;14.23;8.65;;;;;;;22.32;100.00;100878.25;5123435;27;20062;-70
2023/09/06 05:54:29;;;;;;;15.88;9.05;;;;;;;23.00;100.00;100925.78;5111829;28;20040;-74
2023/09/06 05:56:54;;;;;;;18.35;9.48;;;;;;;22.58;100.00;100897.41;5094437;28;20027;-73
2023/09/06 05:59:21;;;;;;;23.90;10.02;;;;;;;22.52;100.00;100926.28;5119641;27;20031;-75
2023/09/06 06:01:46;;;;;;;19.65;9.75;;;;;;;22.74;100.00;100970.72;5139617;27;20047;-75
2023/09/06 06:04:13;;;;;;;22.45;9.73;;;;;;;22.36;100.00;100919.41;5115186;27;20041;-73
2023/09/06 06:06:40;;;;;;;16.70;9.48;;;;;;;22.74;100.00;100965.53;5132836;27;20031;-73
2023/09/06 06:09:06;;;;;;;18.27;9.40;;;;;;;22.58;100.00;100915.53;5123744;27;20035;-72
2023/09/06 06:11:31;;;;;;;17.08;9.88;;;;;;;22.76;100.00;100954.09;5115123;27;20042;-73
2023/09/06 06:13:56;;;;;;;15.55;9.57;;;;;;;22.79;100.00;100933.19;5113806;27;20035;-71
2023/09/06 06:16:22;;;;;;;15.82;9.95;;;;;;;23.16;100.00;100970.59;5117353;27;20039;-73
2023/09/06 06:18:48;;;;;;;22.55;10.95;;;;;;;23.43;100.00;100973.22;5124823;27;20031;-76
2023/09/06 06:21:13;;;;;;;18.00;9.75;;;;;;;23.03;100.00;100941.16;5109364;28;20040;-74
2023/09/06 06:23:43;;;;;;;17.88;10.85;;;;;;;23.51;100.00;101012.50;5135392;27;20031;-73
2023/09/06 06:26:09;;;;;;;16.63;9.63;;;;;;;23.49;100.00;100960.66;5137711;27;20027;-74
2023/09/06 06:28:34;;;;;;;16.90;12.00;;;;;;;23.68;100.00;101096.16;5135778;27;20023;-73
2023/09/06 06:31:00;;;;;;;19.00;15.02;;;;;;;23.56;100.00;101055.41;5091554;28;20417;-73
2023/09/06 06:33:25;;;;;;;20.63;13.57;;;;;;;23.47;100.00;101149.47;5110226;28;20092;-73
2023/09/06 06:35:51;;;;;;;15.43;11.43;;;;;;;24.01;100.00;101112.16;5110568;28;20055;-73
2023/09/06 06:38:16;;;;;;;15.43;10.45;;;;;;;24.14;100.00;101093.19;5112178;28;20462;-71
2023/09/06 06:40:42;;;;;;;11.77;9.85;;;;;;;24.65;100.00;101173.78;5121133;27;20123;-74
2023/09/06 06:43:07;;;;;;;13.43;10.00;;;;;;;25.63;100.00;101257.31;5121040;27;20486;-74
2023/09/06 06:45:32;;;;;;;21.77;11.10;;;;;;;25.14;100.00;101478.53;5093245;28;20027;-73
2023/09/06 06:47:58;;;;;;;12.88;9.07;;;;;;;25.85;100.00;101716.25;5111099;28;20031;-73
2023/09/06 06:50:23;;;;;;;10.98;7.60;;;;;;;26.19;100.00;102505.44;5111698;28;20071;-74
2023/09/06 06:52:49;;;;;;;14.45;10.82;;;;;;;26.45;100.00;104280.28;5111569;28;20111;-75
2023/09/06 06:55:15;;;;;;;25.40;11.70;;;;;;;26.23;100.00;104284.31;5112166;28;20091;-74
2023/09/06 06:57:41;;;;;;;12.35;9.43;;;;;;;26.20;100.00;104337.50;5110851;28;20054;-74
2023/09/06 07:00:11;;;;;;;11.65;8.13;;;;;;;26.12;100.00;104409.03;5111862;28;20023;-75
2023/09/06 07:02:39;;;;;;;11.20;7.60;;;;;;;25.94;100.00;104271.09;5093520;28;20105;-74
2023/09/06 07:05:05;;;;;;;11.15;7.78;;;;;;;25.30;100.00;104311.59;5093291;28;20032;-74
2023/09/06 07:07:30;;;;;;;11.25;7.93;;;;;;;25.72;100.00;104127.28;5111587;28;20043;-75
2023/09/06 07:09:55;;;;;;;10.57;8.25;;;;;;;25.52;100.00;103895.69;5111948;28;20039;-75
2023/09/06 07:12:21;;;;;;;11.30;8.30;;;;;;;25.88;100.00;104801.78;5093114;28;20436;-74
2023/09/06 07:14:46;;;;;;;9.90;7.97;;;;;;;26.45;100.00;104486.59;5111726;28;20065;-74
2023/09/06 07:17:12;;;;;;;9.50;7.90;;;;;;;25.63;100.00;104104.88;5111615;28;20226;-74
2023/09/06 07:19:37;;;;;;;12.63;8.40;;;;;;;26.24;100.00;103878.81;5093012;28;20105;-74
2023/09/06 07:22:03;;;;;;;15.38;8.82;;;;;;;26.06;100.00;102914.81;5092961;28;20118;-75
2023/09/06 07:24:28;;;;;;;10.30;8.23;;;;;;;26.41;100.00;102492.94;5093274;28;20077;-75
2023/09/06 07:26:54;;;;;;;14.25;8.80;;;;;;;26.51;100.00;102526.31;5093315;28;20031;-74
2023/09/06 07:29:19;;;;;;;16.90;8.50;;;;;;;26.38;100.00;102621.00;5111589;28;20516;-75
2023/09/06 07:31:45;;;;;;;12.70;8.23;;;;;;;26.54;100.00;102651.44;5111362;28;20114;-73
2023/09/06 07:34:10;;;;;;;10.63;8.50;;;;;;;26.50;100.00;102612.53;5097215;28;20050;-74
2023/09/06 07:36:36;;;;;;;11.07;9.23;;;;;;;26.35;100.00;102527.19;5115474;28;20475;-74
2023/09/06 07:39:01;;;;;;;14.93;8.57;;;;;;;26.41;100.00;102508.59;5114473;28;20566;-74
2023/09/06 07:41:27;;;;;;;14.15;9.73;;;;;;;26.66;100.00;102488.09;5115640;28;20023;-74
2023/09/06 07:43:52;;;;;;;17.00;8.77;;;;;;;27.01;100.00;102502.66;5104350;28;20425;-73
2023/09/06 07:46:18;;;;;;;11.68;8.25;;;;;;;26.75;100.00;102450.19;5110657;28;20087;-73
2023/09/06 07:48:43;;;;;;;12.20;8.20;;;;;;;26.72;100.00;102385.91;5097299;28;20076;-74
2023/09/06 07:51:10;;;;;;;10.98;7.90;;;;;;;26.34;100.00;102325.41;5127373;27;20030;-74
2023/09/06 07:53:36;;;;;;;13.60;7.75;;;;;;;26.43;100.00;102295.34;5137786;27;20018;-73
2023/09/06 07:56:02;;;;;;;9.80;7.75;;;;;;;26.94;100.00;102333.31;5153061;27;20022;-75
2023/09/06 07:58:27;;;;;;;15.40;7.90;;;;;;;27.07;100.00;102305.53;5137687;27;20029;-75
2023/09/06 08:00:53;;;;;;;14.05;8.98;;;;;;;27.11;100.00;102266.06;5157265;27;20026;-77
2023/09/06 08:03:18;;;;;;;15.13;9.10;;;;;;;27.00;100.00;102195.31;5138854;27;20086;-80
2023/09/06 08:05:43;;;;;;;12.02;8.77;;;;;;;26.68;100.00;102105.03;5156626;27;20515;-77
2023/09/06 08:08:10;;;;;;;12.32;8.90;;;;;;;27.08;100.00;102132.13;5138293;27;20420;-74
2023/09/06 08:10:42;;;;;;;12.68;8.63;;;;;;;27.08;100.00;101528.69;5125526;27;20515;-76
2023/09/06 08:13:08;;;;;;;10.73;8.52;;;;;;;27.04;100.00;101316.50;5132538;27;20383;-76
2023/09/06 08:15:35;;;;;;;11.93;8.52;;;;;;;27.09;100.00;101250.88;5144133;27;20041;-76
2023/09/06 08:18:03;;;;;;;12.48;8.18;;;;;;;26.86;100.00;101156.00;5135936;27;20027;-75
2023/09/06 08:20:28;;;;;;;9.70;7.85;;;;;;;27.22;100.00;101192.34;5116427;27;20031;-76
2023/09/06 08:22:53;;;;;;;11.32;8.45;;;;;;;27.24;100.00;101164.31;5126315;27;20528;-73
2023/09/06 08:25:19;;;;;;;10.45;8.00;;;;;;;27.06;100.00;101117.91;5111639;27;20023;-72
2023/09/06 08:27:44;;;;;;;10.07;7.97;;;;;;;27.66;100.00;101154.06;5127241;27;20026;-71
2023/09/06 08:30:12;;;;;;;11.45;8.50;;;;;;;27.11;100.00;101074.81;5115026;27;20049;-72
2023/09/06 08:32:38;;;;;;;10.07;8.18;;;;;;;27.25;100.00;101077.16;5107543;27;20034;-73
2023/09/06 08:35:06;;;;;;;13.35;8.50;;;;;;;27.36;100.00;101118.97;5106692;27;20573;-72
2023/09/06 08:37:32;;;;;;;13.38;7.95;;;;;;;26.98;100.00;101047.19;5114777;27;20031;-74
2023/09/06 08:39:58;;;;;;;11.35;8.00;;;;;;;27.59;100.00;101088.38;5128243;27;20028;-72
2023/09/06 08:42:24;;;;;;;11.93;8.20;;;;;;;27.71;100.00;101073.50;5129668;27;20034;-73
2023/09/06 08:44:51;;;;;;;11.88;7.93;;;;;;;27.38;100.00;101038.69;5133638;27;20031;-72
2023/09/06 08:47:19;;;;;;;14.35;8.35;;;;;;;27.44;100.00;101076.53;5114668;27;20023;-72
2023/09/06 08:49:49;;;;;;;11.63;8.05;;;;;;;27.59;100.00;101054.41;5114951;27;20417;-73
2023/09/06 08:52:15;;;;;;;12.10;8.13;;;;;;;27.81;100.00;101063.94;5109310;27;20489;-73
2023/09/06 08:54:45;;;;;;;12.30;7.88;;;;;;;27.88;100.00;101049.38;5114895;27;20062;-72
2023/09/06 08:57:14;;;;;;;17.05;8.20;;;;;;;27.48;100.00;101011.78;5129671;27;20027;-73
2023/09/06 08:59:40;;;;;;;14.88;8.00;;;;;;;27.49;100.00;101026.53;5114494;27;20053;-73
2023/09/06 09:02:10;;;;;;;14.05;8.00;;;;;;;28.18;100.00;101024.16;5113191;27;20055;-74
2023/09/06 09:04:42;;;;;;;12.63;8.07;;;;;;;28.74;100.00;101100.47;5107607;27;20039;-73
2023/09/06 09:07:11;;;;;;;11.25;8.02;;;;;;;28.98;100.00;101068.72;5128954;27;20065;-73
2023/09/06 09:09:58;;;;;;;13.95;8.20;;;;;;;28.64;100.00;101076.06;5128683;27;20434;-72
2023/09/06 09:12:28;;;;;;;10.43;7.90;;;;;;;28.37;100.00;101094.06;5130135;27;20490;-70
2023/09/06 09:14:56;;;;;;;10.90;8.18;;;;;;;28.47;100.00;101100.19;5109093;27;20023;-72
2023/09/06 09:17:22;;;;;;;10.15;7.72;;;;;;;28.76;100.00;101095.13;5124572;27;20031;-73
2023/09/06 09:19:50;;;;;;;12.32;8.20;;;;;;;28.29;100.00;101065.94;5114593;27;20027;-72
2023/09/06 09:22:20;;;;;;;9.77;8.32;;;;;;;27.89;100.00;101041.41;5105080;27;20509;-72
2023/09/06 09:24:46;;;;;;;10.65;8.15;;;;;;;27.90;100.00;101039.63;5113709;27;20042;-74
2023/09/06 09:27:12;;;;;;;10.45;8.40;;;;;;;27.88;100.00;101041.53;5114141;27;20060;-74
2023/09/06 09:29:38;;;;;;;10.80;8.25;;;;;;;28.14;100.00;101040.22;5131823;27;20043;-73
2023/09/06 09:32:04;;;;;;;13.73;8.57;;;;;;;27.98;100.00;100967.44;5132279;27;20114;-73
2023/09/06 09:34:30;;;;;;;12.85;8.43;;;;;;;27.81;100.00;101009.03;5133038;27;20079;-73
2023/09/06 09:36:55;;;;;;;15.52;9.05;;;;;;;27.42;100.00;100994.81;5112878;27;20027;-73
2023/09/06 09:39:27;;;;;;;20.35;8.88;;;;;;;27.52;100.00;100994.91;5128459;27;20031;-73
2023/09/06 09:41:57;;;;;;;12.50;7.97;;;;;;;27.85;100.00;101063.53;5113807;27;20382;-73
2023/09/06 09:44:23;;;;;;;12.05;8.43;;;;;;;27.75;100.00;101077.50;5105115;27;20469;-73
2023/09/06 09:46:53;;;;;;;14.68;7.65;;;;;;;27.76;100.00;101068.69;5112238;27;20030;-72
2023/09/06 09:49:21;;;;;;;13.75;8.05;;;;;;;27.82;100.00;101018.50;5114154;27;20023;-72
2023/09/06 09:51:50;;;;;;;9.38;7.65;;;;;;;27.87;100.00;101087.78;5127310;27;20114;-72
2023/09/06 09:54:17;;;;;;;15.40;8.13;;;;;;;27.64;100.00;101061.84;5126193;27;20172;-72
2023/09/06 09:56:48;;;;;;;11.05;8.40;;;;;;;27.87;100.00;101106.06;5131321;27;20027;-72
2023/09/06 09:59:16;;;;;;;12.25;8.48;;;;;;;28.09;100.00;101095.53;5113887;27;20062;-73
2023/09/06 10:01:42;;;;;;;14.07;8.50;;;;;;;28.10;100.00;101064.97;5119486;27;20066;-73
2023/09/06 10:04:11;;;;;;;10.45;8.25;;;;;;;27.84;100.00;101054.03;4736833;28;9999951;-71
2023/09/06 10:06:38;;;;;;;13.00;8.20;;;;;;;28.13;100.00;101096.09;5108438;28;20110;-73
2023/09/06 10:09:12;;;;;;;12.20;8.25;;;;;;;28.38;100.00;101089.66;5091073;28;20039;-73
2023/09/06 10:11:40;;;;;;;11.88;8.82;;;;;;;28.17;100.00;101110.59;5109807;28;20537;-72
2023/09/06 10:14:06;;;;;;;12.93;8.80;;;;;;;28.52;100.00;101124.19;5108861;28;20138;-73
2023/09/06 10:16:32;;;;;;;14.10;8.07;;;;;;;29.03;100.00;101108.44;5108444;28;20114;-72
2023/09/06 10:18:58;;;;;;;10.45;8.43;;;;;;;29.68;100.00;101113.16;5108430;28;20092;-70
2023/09/06 10:21:24;;;;;;;13.88;7.85;;;;;;;29.81;100.00;101132.91;5108814;28;20036;-70
2023/09/06 10:23:50;;;;;;;11.20;8.02;;;;;;;28.90;100.00;101103.44;5090525;28;20035;-70
2023/09/06 10:26:26;;;;;;;14.63;8.93;;;;;;;28.46;100.00;101139.59;5089947;28;20031;-70
2023/09/06 10:28:59;;;;;;;11.65;8.10;;;;;;;28.37;100.00;101166.50;5091832;28;20123;-71
2023/09/06 10:31:55;;;;;;;14.43;8.30;;;;;;;29.01;100.00;101153.13;5091663;28;20028;-71
2023/09/06 10:34:21;;;;;;;9.00;7.93;;;;;;;28.24;100.00;101082.97;5089567;28;20039;-71
2023/09/06 10:36:51;;;;;;;12.90;8.13;;;;;;;28.76;100.00;101153.53;5108491;28;20038;-73
2023/09/06 10:39:18;;;;;;;11.05;8.23;;;;;;;29.25;100.00;101099.56;5089676;28;20031;-71
2023/09/06 10:42:09;;;;;;;10.35;7.95;;;;;;;29.61;100.00;101159.25;5108469;28;20550;-71
2023/09/06 10:44:53;;;;;;;14.30;8.52;;;;;;;30.17;100.00;101160.25;5099615;27;20036;-70
2023/09/06 10:47:31;;;;;;;8.93;8.02;;;;;;;29.54;100.00;101164.19;5087910;28;20066;-70
2023/09/06 10:50:15;;;;;;;9.73;7.80;;;;;;;29.52;100.00;101099.75;5069375;28;20410;-71
2023/09/06 10:52:53;;;;;;;9.20;7.68;;;;;;;29.91;100.00;101159.19;5085742;28;20788;-71
2023/09/06 10:55:22;;;;;;;11.18;7.80;;;;;;;29.76;100.00;101060.84;5101905;28;20035;-72
2023/09/06 10:57:54;;;;;;;9.43;7.65;;;;;;;30.01;100.00;101162.59;5108618;28;20038;-71
2023/09/06 11:00:27;;;;;;;12.35;7.55;;;;;;;30.15;100.00;101127.25;5090513;28;20482;-70
2023/09/06 11:03:07;;;;;;;8.13;7.30;;;;;;;30.05;100.00;101163.19;5105679;28;20040;-71
2023/09/06 11:05:36;;;;;;;10.38;7.53;;;;;;;30.39;100.00;101159.16;5117111;28;20038;-70
2023/09/06 11:08:04;;;;;;;11.02;7.65;;;;;;;30.09;100.00;101148.81;5118868;28;20027;-70
2023/09/06 11:10:30;;;;;;;12.27;7.65;;;;;;;29.67;100.00;101162.13;5110159;28;20096;-71
2023/09/06 11:12:56;;;;;;;13.40;7.72;;;;;;;30.18;100.00;101129.59;5110358;28;20520;-70